Ada, OH (45810)

5:38 AM EDT on July 23, 2017 (GMT -0400)
Ada | | Change Station

Elev 912 ft 40.82 °N, 83.86 °W | Updated 4 seconds ago

Partly Cloudy
Partly Cloudy
68.0 °F
Feels Like 68.0 °F
N
0.0
Wind Variable Wind from WSW
Gusts 0.0 mph

Today
High -- | Low -- °F
--% Chance of Precip.
Yesterday
High -- | Low -- °F
Precip. -- in
Pressure 29.80 in
Visibility 3.0 miles
Clouds Clear
Dew Point 67 °F
Humidity 97%
Rainfall 0.00 in
Snow Depth Not available.
6:23 AM 8:59 PM
Waning Crescent, 0% visible
SPECI KAOH 230921Z AUTO 00000KT 3SM BR CLR 20/20 A2980 RMK AO2 T02000200 $
Pressure 29.80 in
Visibility 3.0 miles
Clouds Clear
Dew Point 67 °F
Humidity 97%
Rainfall 0.00 in
Snow Depth Not available.
6:23 AM 8:59 PM
Waning Crescent, 0% visible
SPECI KAOH 230921Z AUTO 00000KT 3SM BR CLR 20/20 A2980 RMK AO2 T02000200 $

Get Severe Weather Alerts

Thanks for signing up!

Be on the lookout for a verification email in your inbox.

You'll start receiving the daily forecast at 6 AM.

×

10-Day Weather Forecast

Almanac

Astronomy

Jul. 23, 2017 Rise Set
Actual Time
Civil Twilight
Nautical Twilight
Astronomical Twilight
Moon
Length of Visible Light
Length of Day
Tomorrow will be .
, % of the Moon is Illuminated

Today's Extremes

State Highs State Lows

Community

WunderPhotos

Category 6

Welcome to Category 6. This is the collective home for Weather Underground's featured writeups by Dr. Jeff Masters (right), Bob Henson (left), Chris Burt, and other regular contributors.

Nearby

Air Quality

  Air Quality AQ Index Pollutant
Not available.

Snow Depth

Station Depth Elevation

Earthquake Activity

City Distance Mag. Time & Date
Minimum magnitude displayed is 2.5.

Coastal Water Temperatures

Place Temperature

Stations

Nearby Weather Stations

Station Location Temp. Windchill Dew Point Humidity Wind Precip. Elev Updated Type
                   

Watches & Warnings

There are currently no watches in effect.